createdAt,value
2017-08-26T00:00:49.036Z,-52
2017-08-26T00:03:16.276Z,-51
2017-08-26T00:05:43.796Z,-51
2017-08-26T00:08:11.290Z,-52
2017-08-26T00:10:38.529Z,-51
2017-08-26T00:13:06.122Z,-51
2017-08-26T00:15:33.318Z,-51
2017-08-26T00:18:00.606Z,-52
2017-08-26T00:20:27.791Z,-51
2017-08-26T00:22:54.973Z,-51
2017-08-26T00:25:22.153Z,-52
2017-08-26T00:27:49.317Z,-51
2017-08-26T00:30:16.679Z,-52
2017-08-26T00:32:43.841Z,-51
2017-08-26T00:35:11.264Z,-51
2017-08-26T00:37:39.035Z,-51
2017-08-26T00:40:06.692Z,-52
2017-08-26T00:42:33.941Z,-51
2017-08-26T00:45:01.124Z,-52
2017-08-26T00:47:28.868Z,-51
2017-08-26T00:49:56.509Z,-51
2017-08-26T00:52:25.401Z,-52
2017-08-26T00:54:52.591Z,-52
2017-08-26T00:57:20.229Z,-52
2017-08-26T00:59:47.412Z,-51
2017-08-26T01:02:14.587Z,-51
2017-08-26T01:04:42.293Z,-52
2017-08-26T01:07:15.272Z,-51
2017-08-26T01:09:42.452Z,-52
2017-08-26T01:12:09.887Z,-51
2017-08-26T01:14:37.069Z,-51
2017-08-26T01:17:04.700Z,-52
2017-08-26T01:19:31.873Z,-51
2017-08-26T01:21:59.049Z,-52
2017-08-26T01:24:26.217Z,-52
2017-08-26T01:26:53.413Z,-51
2017-08-26T01:29:20.960Z,-51
2017-08-26T01:31:49.484Z,-51
2017-08-26T01:34:17.793Z,-51
2017-08-26T01:36:44.963Z,-51
2017-08-26T01:39:12.137Z,-52
2017-08-26T01:41:39.330Z,-51
2017-08-26T01:44:06.830Z,-52
2017-08-26T01:46:35.928Z,-51
2017-08-26T01:49:03.276Z,-52
2017-08-26T01:51:30.915Z,-52
2017-08-26T01:53:58.198Z,-51
2017-08-26T01:56:25.395Z,-51
2017-08-26T01:58:52.801Z,-52
2017-08-26T02:01:20.568Z,-51
2017-08-26T02:03:47.737Z,-51
2017-08-26T02:06:14.997Z,-51
2017-08-26T02:08:42.514Z,-51
2017-08-26T02:11:09.704Z,-51
2017-08-26T02:13:36.928Z,-52
2017-08-26T02:16:04.379Z,-51
2017-08-26T02:18:31.907Z,-52
2017-08-26T02:20:59.077Z,-51
2017-08-26T02:23:26.245Z,-51
2017-08-26T02:25:53.783Z,-52
2017-08-26T02:28:20.956Z,-52
2017-08-26T02:30:48.157Z,-51
2017-08-26T02:33:15.325Z,-52
2017-08-26T02:35:42.817Z,-52
2017-08-26T02:38:10.273Z,-51
2017-08-26T02:40:37.460Z,-52
2017-08-26T02:43:05.405Z,-52
2017-08-26T02:45:32.826Z,-51
2017-08-26T02:48:00.410Z,-51
2017-08-26T02:50:27.595Z,-51
2017-08-26T02:52:54.764Z,-52
2017-08-26T02:55:22.170Z,-51
2017-08-26T02:57:49.618Z,-51
2017-08-26T03:00:17.278Z,-51
2017-08-26T03:02:44.532Z,-51
2017-08-26T03:05:11.993Z,-51
2017-08-26T03:07:39.450Z,-51
2017-08-26T03:10:06.905Z,-51
2017-08-26T03:12:34.367Z,-51
2017-08-26T03:15:01.538Z,-52
2017-08-26T03:17:29.025Z,-52
2017-08-26T03:19:56.219Z,-52
2017-08-26T03:22:23.634Z,-51
2017-08-26T03:24:51.227Z,-51
2017-08-26T03:27:18.815Z,-51
2017-08-26T03:29:45.999Z,-51
2017-08-26T03:32:13.502Z,-51
2017-08-26T03:34:40.677Z,-52
2017-08-26T03:37:07.859Z,-51
2017-08-26T03:39:35.162Z,-51
2017-08-26T03:42:02.341Z,-51
2017-08-26T03:44:29.525Z,-52
2017-08-26T03:46:57.225Z,-51
2017-08-26T03:49:24.408Z,-51
2017-08-26T03:51:51.833Z,-51
2017-08-26T03:54:19.020Z,-51
2017-08-26T03:56:46.447Z,-52
2017-08-26T03:59:13.901Z,-52
2017-08-26T04:01:41.079Z,-51
2017-08-26T04:04:08.604Z,-52
2017-08-26T04:06:35.953Z,-52
2017-08-26T04:09:03.144Z,-51
2017-08-26T04:11:30.321Z,-51
2017-08-26T04:13:57.727Z,-51
2017-08-26T04:16:25.176Z,-52
2017-08-26T04:18:52.632Z,-51
2017-08-26T04:21:20.279Z,-51
2017-08-26T04:23:47.449Z,-52
2017-08-26T04:26:14.886Z,-51
2017-08-26T04:28:42.083Z,-52
2017-08-26T04:31:09.283Z,-52
2017-08-26T04:33:36.764Z,-52
2017-08-26T04:36:04.221Z,-52
2017-08-26T04:38:31.677Z,-51
2017-08-26T04:40:59.125Z,-51
2017-08-26T04:43:26.655Z,-51
2017-08-26T04:45:53.844Z,-52
2017-08-26T04:48:21.390Z,-52
2017-08-26T04:50:48.575Z,-51
2017-08-26T04:53:16.002Z,-51
2017-08-26T04:55:43.178Z,-52
2017-08-26T04:58:10.349Z,-51
2017-08-26T05:00:37.630Z,-52
2017-08-26T05:03:05.021Z,-51
2017-08-26T05:05:32.197Z,-51
2017-08-26T05:07:59.730Z,-51
2017-08-26T05:10:26.911Z,-52
2017-08-26T05:12:54.226Z,-51
2017-08-26T05:15:21.606Z,-53
2017-08-26T05:17:48.841Z,-51
2017-08-26T05:20:16.013Z,-51
2017-08-26T05:22:43.447Z,-52
2017-08-26T05:25:10.624Z,-52
2017-08-26T05:27:38.057Z,-51
2017-08-26T05:30:05.235Z,-51
2017-08-26T05:32:32.663Z,-51
2017-08-26T05:35:00.119Z,-51
2017-08-26T05:37:27.739Z,-51
2017-08-26T05:39:55.036Z,-51
2017-08-26T05:42:22.498Z,-51
2017-08-26T05:44:50.016Z,-52
2017-08-26T05:47:17.408Z,-52
2017-08-26T05:49:44.865Z,-52
2017-08-26T05:52:12.327Z,-52
2017-08-26T05:54:39.501Z,-51
2017-08-26T05:57:06.673Z,-51
2017-08-26T05:59:33.859Z,-52
2017-08-26T06:02:01.041Z,-51
2017-08-26T06:04:28.433Z,-51
2017-08-26T06:06:55.836Z,-52
2017-08-26T06:09:23.489Z,-52
2017-08-26T06:11:50.757Z,-51
2017-08-26T06:14:17.943Z,-51
2017-08-26T06:16:45.110Z,-52
2017-08-26T06:19:12.821Z,-52
2017-08-26T06:21:39.994Z,-51
2017-08-26T06:24:07.181Z,-51
2017-08-26T06:26:34.572Z,-52
2017-08-26T06:29:01.737Z,-51
2017-08-26T06:31:29.372Z,-52
2017-08-26T06:33:56.949Z,-51
2017-08-26T06:36:24.131Z,-52
2017-08-26T06:38:51.547Z,-51
2017-08-26T06:41:18.718Z,-52
2017-08-26T06:43:46.358Z,-51
2017-08-26T06:46:13.533Z,-51
2017-08-26T06:48:40.701Z,-51
2017-08-26T06:51:07.873Z,-51
2017-08-26T06:53:35.059Z,-51
2017-08-26T06:56:02.720Z,-51
2017-08-26T06:58:29.980Z,-52
2017-08-26T07:00:57.149Z,-51
2017-08-26T07:03:24.331Z,-52
2017-08-26T07:05:51.515Z,-52
2017-08-26T07:08:18.891Z,-52
2017-08-26T07:10:46.065Z,-51
2017-08-26T07:13:13.595Z,-51
2017-08-26T07:15:40.783Z,-51
2017-08-26T07:18:07.970Z,-51
2017-08-26T07:20:35.155Z,-51
2017-08-26T07:23:02.344Z,-52
2017-08-26T07:25:29.531Z,-51
2017-08-26T07:27:56.716Z,-52
2017-08-26T07:30:23.889Z,-51
2017-08-26T07:32:51.304Z,-52
2017-08-26T07:35:18.823Z,-51
2017-08-26T07:37:45.994Z,-52
2017-08-26T07:40:13.688Z,-52
2017-08-26T07:42:41.137Z,-52
2017-08-26T07:45:08.329Z,-52
2017-08-26T07:47:35.505Z,-52
2017-08-26T07:50:02.688Z,-51
2017-08-26T07:52:30.118Z,-52
2017-08-26T07:54:57.307Z,-51
2017-08-26T07:57:24.498Z,-51
2017-08-26T07:59:51.798Z,-52
2017-08-26T08:02:18.985Z,-51
2017-08-26T08:04:46.482Z,-51
2017-08-26T08:07:13.822Z,-51
2017-08-26T08:09:41.321Z,-51
2017-08-26T08:12:08.955Z,-51
2017-08-26T08:14:36.550Z,-52
2017-08-26T08:17:03.736Z,-51
2017-08-26T08:19:30.951Z,-52
2017-08-26T08:21:58.120Z,-51
2017-08-26T08:24:25.300Z,-51
2017-08-26T08:26:52.600Z,-51
2017-08-26T08:29:20.070Z,-51
2017-08-26T08:31:47.244Z,-51
2017-08-26T08:34:14.770Z,-51
2017-08-26T08:36:42.124Z,-51
2017-08-26T08:39:09.574Z,-52
2017-08-26T08:41:36.760Z,-51
2017-08-26T08:44:03.925Z,-51
2017-08-26T08:46:31.089Z,-51
2017-08-26T08:48:58.668Z,-51
2017-08-26T08:51:25.838Z,-51
2017-08-26T08:53:53.277Z,-51
2017-08-26T08:56:20.553Z,-50
2017-08-26T08:58:48.008Z,-52
2017-08-26T09:01:15.458Z,-51
2017-08-26T09:03:42.637Z,-52
2017-08-26T09:06:10.290Z,-52
2017-08-26T09:08:37.534Z,-51
2017-08-26T09:11:04.701Z,-51
2017-08-26T09:13:32.129Z,-52
2017-08-26T09:15:59.312Z,-52
2017-08-26T09:18:26.744Z,-52
2017-08-26T09:20:54.201Z,-52
2017-08-26T09:23:21.786Z,-52
2017-08-26T09:25:49.117Z,-52
2017-08-26T09:28:16.652Z,-52
2017-08-26T09:30:44.047Z,-52
2017-08-26T09:33:11.498Z,-52
2017-08-26T09:35:39.173Z,-52
2017-08-26T09:38:06.405Z,-52
2017-08-26T09:40:33.861Z,-52
2017-08-26T09:43:01.315Z,-52
2017-08-26T09:45:28.777Z,-52
2017-08-26T09:47:56.238Z,-52
2017-08-26T09:50:23.425Z,-51
2017-08-26T09:52:51.153Z,-52
2017-08-26T09:55:18.665Z,-52
2017-08-26T09:57:46.181Z,-51
2017-08-26T10:00:13.697Z,-52
2017-08-26T10:02:40.975Z,-52
2017-08-26T10:05:08.153Z,-52
2017-08-26T10:07:35.581Z,-51
2017-08-26T10:10:02.762Z,-51
2017-08-26T10:12:30.195Z,-52
2017-08-26T10:14:57.366Z,-51
2017-08-26T10:17:24.802Z,-53
2017-08-26T10:19:52.252Z,-51
2017-08-26T10:22:19.426Z,-52
2017-08-26T10:24:46.679Z,-52
2017-08-26T10:27:14.012Z,-52
2017-08-26T10:29:41.529Z,-52
2017-08-26T10:32:08.917Z,-52
2017-08-26T10:34:36.381Z,-52
2017-08-26T10:37:03.829Z,-51
2017-08-26T10:39:31.036Z,-52
2017-08-26T10:41:58.245Z,-52
2017-08-26T10:44:25.459Z,-51
2017-08-26T10:46:52.927Z,-52
2017-08-26T10:49:20.204Z,-52
2017-08-26T10:51:47.423Z,-51
2017-08-26T10:54:14.597Z,-54
2017-08-26T10:56:41.962Z,-52
2017-08-26T10:59:09.489Z,-53
2017-08-26T11:01:36.672Z,-52
2017-08-26T11:04:04.224Z,-51
2017-08-26T11:06:31.397Z,-51
2017-08-26T11:08:58.574Z,-51
2017-08-26T11:11:25.742Z,-52
2017-08-26T11:13:53.238Z,-51
2017-08-26T11:16:20.427Z,-51
2017-08-26T11:18:47.615Z,-52
2017-08-26T11:21:15.001Z,-52
2017-08-26T11:23:42.456Z,-52
2017-08-26T11:26:09.910Z,-51
2017-08-26T11:28:37.096Z,-52
2017-08-26T11:31:04.468Z,-51
2017-08-26T11:33:31.972Z,-52
2017-08-26T11:35:59.439Z,-52
2017-08-26T11:38:26.991Z,-51
2017-08-26T11:40:54.232Z,-52
2017-08-26T11:43:21.419Z,-52
2017-08-26T11:45:48.718Z,-52
2017-08-26T11:48:16.104Z,-52
2017-08-26T11:50:43.282Z,-52
2017-08-26T11:53:10.718Z,-51
2017-08-26T11:55:37.889Z,-52
2017-08-26T11:58:05.078Z,-51
2017-08-26T12:00:32.784Z,-52
2017-08-26T12:03:00.290Z,-53
2017-08-26T12:05:27.490Z,-52
2017-08-26T12:07:54.681Z,-52
2017-08-26T12:10:21.990Z,-52
2017-08-26T12:12:49.495Z,-51
2017-08-26T12:15:16.976Z,-52
2017-08-26T12:17:44.387Z,-51
2017-08-26T12:20:11.913Z,-52
2017-08-26T12:22:39.598Z,-51
2017-08-26T12:25:07.048Z,-52
2017-08-26T12:27:34.501Z,-53
2017-08-26T12:30:02.056Z,-53
2017-08-26T12:32:29.229Z,-53
2017-08-26T12:34:56.641Z,-54
2017-08-26T12:37:25.177Z,-53
2017-08-26T12:39:52.506Z,-53
2017-08-26T12:42:19.852Z,-55
2017-08-26T12:44:47.622Z,-53
2017-08-26T12:47:14.793Z,-54
2017-08-26T12:49:45.656Z,-54
2017-08-26T12:52:15.374Z,-53
2017-08-26T12:54:45.718Z,-54
2017-08-26T12:57:13.236Z,-54
2017-08-26T12:59:40.487Z,-54
2017-08-26T13:02:08.006Z,-54
2017-08-26T13:04:35.189Z,-53
2017-08-26T13:07:02.374Z,-54
2017-08-26T13:09:29.875Z,-53
2017-08-26T13:11:57.951Z,-54
2017-08-26T13:14:25.742Z,-54
2017-08-26T13:16:53.261Z,-53
2017-08-26T13:19:20.829Z,-55
2017-08-26T13:21:48.397Z,-54
2017-08-26T13:24:15.914Z,-54
2017-08-26T13:26:43.137Z,-54
2017-08-26T13:29:10.453Z,-55
2017-08-26T13:31:37.634Z,-54
2017-08-26T13:34:05.070Z,-56
2017-08-26T13:36:32.237Z,-53
2017-08-26T13:38:59.425Z,-54
2017-08-26T13:41:27.259Z,-53
2017-08-26T13:43:54.487Z,-54
2017-08-26T13:46:21.920Z,-54
2017-08-26T13:48:49.158Z,-54
2017-08-26T13:51:16.957Z,-55
2017-08-26T13:53:44.417Z,-54
2017-08-26T13:56:11.629Z,-54
2017-08-26T13:58:38.809Z,-54
2017-08-26T14:01:06.564Z,-53
2017-08-26T14:03:34.248Z,-53
2017-08-26T14:06:01.704Z,-54
2017-08-26T14:08:29.225Z,-53
2017-08-26T14:10:56.405Z,-55
2017-08-26T14:13:23.818Z,-54
2017-08-26T14:15:51.328Z,-60
2017-08-26T14:18:18.516Z,-54
2017-08-26T14:20:45.701Z,-54
2017-08-26T14:23:13.019Z,-55
2017-08-26T14:25:40.456Z,-55
2017-08-26T14:28:07.891Z,-54
2017-08-26T14:30:35.067Z,-53
2017-08-26T14:33:02.504Z,-55
2017-08-26T14:35:29.961Z,-58
2017-08-26T14:37:57.132Z,-58
2017-08-26T14:40:24.567Z,-53
2017-08-26T14:42:52.014Z,-54
2017-08-26T14:45:19.512Z,-56
2017-08-26T14:47:46.693Z,-56
2017-08-26T14:50:14.088Z,-55
2017-08-26T14:52:41.612Z,-54
2017-08-26T14:55:09.091Z,-56
2017-08-26T14:57:36.280Z,-53
2017-08-26T15:00:03.613Z,-55
2017-08-26T15:02:30.785Z,-55
2017-08-26T15:04:57.959Z,-55
2017-08-26T15:07:25.133Z,-55
2017-08-26T15:09:52.610Z,-54
2017-08-26T15:12:20.052Z,-53
2017-08-26T15:14:48.004Z,-53
2017-08-26T15:17:15.237Z,-54
2017-08-26T15:19:42.409Z,-54
2017-08-26T15:22:09.806Z,-54
2017-08-26T15:24:36.996Z,-54
2017-08-26T15:27:04.412Z,-54
2017-08-26T15:29:31.596Z,-54
2017-08-26T15:31:59.020Z,-58
2017-08-26T15:34:26.684Z,-55
2017-08-26T15:36:53.942Z,-55
2017-08-26T15:39:21.396Z,-55
2017-08-26T15:41:48.849Z,-56
2017-08-26T15:44:16.017Z,-55
2017-08-26T15:46:43.487Z,-55
2017-08-26T15:49:10.915Z,-55
2017-08-26T15:51:38.382Z,-55
2017-08-26T15:54:05.621Z,-55
2017-08-26T15:56:32.793Z,-55
2017-08-26T15:58:59.973Z,-55
2017-08-26T16:01:27.145Z,-55
2017-08-26T16:03:54.437Z,-55
2017-08-26T16:06:21.623Z,-55
2017-08-26T16:08:49.037Z,-55
2017-08-26T16:11:16.497Z,-55
2017-08-26T16:13:43.883Z,-56
2017-08-26T16:16:11.101Z,-55
2017-08-26T16:18:38.621Z,-55
2017-08-26T16:21:06.014Z,-55
2017-08-26T16:23:33.656Z,-55
2017-08-26T16:26:00.844Z,-55
2017-08-26T16:28:28.036Z,-55
2017-08-26T16:30:55.536Z,-55
2017-08-26T16:33:23.050Z,-55
2017-08-26T16:35:50.222Z,-55
2017-08-26T16:38:17.605Z,-55
2017-08-26T16:40:45.125Z,-55
2017-08-26T16:43:12.300Z,-55
2017-08-26T16:45:39.478Z,-54
2017-08-26T16:48:06.832Z,-54
2017-08-26T16:50:34.547Z,-55
2017-08-26T16:53:02.351Z,-55
2017-08-26T16:55:29.529Z,-56
2017-08-26T16:57:56.878Z,-54
2017-08-26T17:00:24.049Z,-55
2017-08-26T17:02:51.236Z,-55
2017-08-26T17:05:18.852Z,-55
2017-08-26T17:07:46.038Z,-55
2017-08-26T17:10:13.219Z,-55
2017-08-26T17:12:40.465Z,-55
2017-08-26T17:15:08.297Z,-55
2017-08-26T17:17:35.789Z,-55
2017-08-26T17:20:03.356Z,-55
2017-08-26T17:22:30.606Z,-56
2017-08-26T17:24:57.782Z,-55
2017-08-26T17:27:24.949Z,-55
2017-08-26T17:29:52.139Z,-55
2017-08-26T17:32:19.314Z,-55
2017-08-26T17:34:46.666Z,-55
2017-08-26T17:37:14.300Z,-55
2017-08-26T17:39:41.572Z,-55
2017-08-26T17:42:09.040Z,-55
2017-08-26T17:44:36.205Z,-55
2017-08-26T17:47:03.796Z,-55
2017-08-26T17:49:30.968Z,-55
2017-08-26T17:51:58.246Z,-55
2017-08-26T17:54:25.500Z,-55
2017-08-26T17:56:52.839Z,-55
2017-08-26T17:59:20.031Z,-55
2017-08-26T18:01:47.575Z,-55
2017-08-26T18:04:14.755Z,-55
2017-08-26T18:06:41.935Z,-55
2017-08-26T18:09:09.098Z,-57
2017-08-26T18:11:36.572Z,-55
2017-08-26T18:14:03.824Z,-55
2017-08-26T18:16:31.294Z,-55
2017-08-26T18:18:58.476Z,-55
2017-08-26T18:21:25.888Z,-55
2017-08-26T18:23:53.054Z,-55
2017-08-26T18:26:20.700Z,-55
2017-08-26T18:28:47.953Z,-55
2017-08-26T18:31:15.723Z,-55
2017-08-26T18:33:42.968Z,-55
2017-08-26T18:36:10.340Z,-55
2017-08-26T18:38:37.782Z,-55
2017-08-26T18:41:05.240Z,-55
2017-08-26T18:43:32.745Z,-55
2017-08-26T18:45:59.924Z,-55
2017-08-26T18:48:27.111Z,-55
2017-08-26T18:50:54.454Z,-55
2017-08-26T18:53:21.963Z,-55
2017-08-26T18:55:49.480Z,-55
2017-08-26T18:58:16.998Z,-55
2017-08-26T19:00:44.698Z,-55
2017-08-26T19:03:11.876Z,-55
2017-08-26T19:05:39.377Z,-55
2017-08-26T19:08:06.653Z,-55
2017-08-26T19:10:34.109Z,-55
2017-08-26T19:13:01.376Z,-55
2017-08-26T19:15:28.723Z,-55
2017-08-26T19:17:56.361Z,-56
2017-08-26T19:20:23.947Z,-56
2017-08-26T19:22:51.157Z,-55
2017-08-26T19:25:18.544Z,-55
2017-08-26T19:27:45.881Z,-56
2017-08-26T19:30:13.469Z,-56
2017-08-26T19:32:40.638Z,-55
2017-08-26T19:35:08.061Z,-55
2017-08-26T19:37:35.234Z,-55
2017-08-26T19:40:02.570Z,-55
2017-08-26T19:42:29.738Z,-57
2017-08-26T19:44:56.980Z,-55
2017-08-26T19:47:24.622Z,-55
2017-08-26T19:49:51.894Z,-55
2017-08-26T19:52:19.061Z,-55
2017-08-26T19:54:46.672Z,-55
2017-08-26T19:57:14.260Z,-55
2017-08-26T19:59:41.722Z,-55
2017-08-26T20:02:08.885Z,-55
2017-08-26T20:04:36.394Z,-55
2017-08-26T20:07:03.557Z,-55
2017-08-26T20:09:31.058Z,-55
2017-08-26T20:11:58.393Z,-55
2017-08-26T20:14:25.849Z,-55
2017-08-26T20:16:53.622Z,-55
2017-08-26T20:19:21.068Z,-55
2017-08-26T20:21:48.246Z,-55
2017-08-26T20:24:15.677Z,-55
2017-08-26T20:26:42.841Z,-55
2017-08-26T20:29:10.393Z,-56
2017-08-26T20:31:37.936Z,-55
2017-08-26T20:34:05.122Z,-55
2017-08-26T20:36:32.331Z,-56
2017-08-26T20:38:59.963Z,-55
2017-08-26T20:41:27.265Z,-55
2017-08-26T20:43:54.797Z,-55
2017-08-26T20:46:22.138Z,-55
2017-08-26T20:48:49.317Z,-55
2017-08-26T20:51:17.098Z,-55
2017-08-26T20:53:44.742Z,-55
2017-08-26T20:56:12.035Z,-55
2017-08-26T20:58:39.527Z,-55
2017-08-26T21:01:06.727Z,-55
2017-08-26T21:03:33.940Z,-55
2017-08-26T21:06:01.153Z,-55
2017-08-26T21:08:28.546Z,-55
2017-08-26T21:10:56.140Z,-55
2017-08-26T21:13:23.314Z,-55
2017-08-26T21:15:50.745Z,-56
2017-08-26T21:18:17.923Z,-55
2017-08-26T21:20:45.098Z,-55
2017-08-26T21:23:12.814Z,-55
2017-08-26T21:25:39.986Z,-55
2017-08-26T21:28:07.535Z,-55
2017-08-26T21:30:35.051Z,-55
2017-08-26T21:33:02.329Z,-55
2017-08-26T21:35:29.525Z,-55
2017-08-26T21:37:57.030Z,-55
2017-08-26T21:40:24.272Z,-55
2017-08-26T21:42:51.857Z,-55
2017-08-26T21:45:19.620Z,-55
2017-08-26T21:47:46.797Z,-55
2017-08-26T21:50:14.227Z,-55
2017-08-26T21:52:41.407Z,-55
2017-08-26T21:55:08.829Z,-55
2017-08-26T21:57:36.343Z,-55
2017-08-26T22:00:03.744Z,-55
2017-08-26T22:02:31.378Z,-55
2017-08-26T22:04:58.620Z,-55
2017-08-26T22:07:26.425Z,-55
2017-08-26T22:09:53.881Z,-56
2017-08-26T22:12:21.059Z,-55
2017-08-26T22:14:48.690Z,-55
2017-08-26T22:17:15.950Z,-55
2017-08-26T22:19:43.401Z,-55
2017-08-26T22:22:10.583Z,-55
2017-08-26T22:24:38.109Z,-55
2017-08-26T22:27:05.296Z,-55
2017-08-26T22:29:32.820Z,-55
2017-08-26T22:32:00.385Z,-55
2017-08-26T22:34:27.845Z,-55
2017-08-26T22:36:56.122Z,-55
2017-08-26T22:39:23.293Z,-55
2017-08-26T22:41:50.475Z,-56
2017-08-26T22:44:18.749Z,-55
2017-08-26T22:46:47.479Z,-55
2017-08-26T22:49:16.404Z,-56
2017-08-26T22:51:45.036Z,-55
2017-08-26T22:54:14.046Z,-55
2017-08-26T22:56:42.781Z,-55
2017-08-26T22:59:10.825Z,-56
2017-08-26T23:01:38.242Z,-55
2017-08-26T23:04:05.812Z,-55
2017-08-26T23:06:33.390Z,-55
2017-08-26T23:09:01.507Z,-55
2017-08-26T23:11:31.364Z,-55
2017-08-26T23:14:01.110Z,-55
2017-08-26T23:16:30.523Z,-55
2017-08-26T23:18:59.947Z,-55
2017-08-26T23:21:27.457Z,-55
2017-08-26T23:23:55.098Z,-55
2017-08-26T23:26:23.060Z,-55
2017-08-26T23:28:50.834Z,-55
2017-08-26T23:31:18.132Z,-55
2017-08-26T23:33:45.669Z,-55
2017-08-26T23:36:13.186Z,-55
2017-08-26T23:38:40.459Z,-55
2017-08-26T23:41:07.996Z,-55
2017-08-26T23:43:35.488Z,-55
2017-08-26T23:46:03.308Z,-55
2017-08-26T23:48:30.602Z,-55
2017-08-26T23:50:57.793Z,-55
2017-08-26T23:53:25.207Z,-55
2017-08-26T23:55:53.415Z,-56
2017-08-26T23:58:20.692Z,-55
